Time;durP1;ratioP1;P1;durP2;ratioP2;P2;SDS_P1;SDS_P2;PMS_P1;PMS_P2;Temp;Humidity;BMP_temperature;BMP_pressure;BME280_temperature;BME280_humidity;BME280_pressure;Samples;Min_cycle;Max_cycle;Signal;HPM_P1;HPM_P2
2023/07/05 07:32:30;;;;;;;7.93;5.30;;;;;;;;;;4750456;22;20140;-78
2023/07/05 07:34:57;;;;;;;9.48;5.47;;;;;;;;;;5020852;28;20045;-76
2023/07/05 07:37:23;;;;;;;9.32;5.82;;;;;;;;;;5012688;28;20064;-78
2023/07/05 07:39:49;;;;;;;8.75;5.78;;;;;;;;;;5016365;28;20036;-78
2023/07/05 07:42:15;;;;;;;8.70;6.03;;;;;;;;;;5031456;28;20076;-79
2023/07/05 07:44:41;;;;;;;10.63;5.82;;;;;;;;;;5013869;28;20079;-77
2023/07/05 07:47:07;;;;;;;10.70;6.00;;;;;;;;;;5032047;28;20022;-77
2023/07/05 07:49:33;;;;;;;12.38;5.95;;;;;;;;;;5030427;28;20096;-77
2023/07/05 07:52:00;;;;;;;11.23;6.03;;;;;;;;;;5030270;28;20033;-76
2023/07/05 07:54:28;;;;;;;11.60;5.88;;;;;;;;;;5031324;28;20151;-75
2023/07/05 07:56:55;;;;;;;9.98;5.85;;;;;;;;;;5031298;28;20041;-76
2023/07/05 07:59:21;;;;;;;10.23;6.05;;;;;;;;;;5013983;28;20017;-76
2023/07/05 08:01:48;;;;;;;10.02;6.40;;;;;;;;;;5031667;28;20037;-77
2023/07/05 08:04:14;;;;;;;12.40;5.72;;;;;;;;;;5016667;28;20042;-76
2023/07/05 08:06:50;;;;;;;8.30;5.85;;;;;;;;;;5024036;28;20036;-77
2023/07/05 08:09:21;;;;;;;9.07;5.93;;;;;;;;;;5026868;28;20037;-76
2023/07/05 08:11:47;;;;;;;7.57;5.55;;;;;;;;;;5003879;28;20033;-77
2023/07/05 08:14:13;;;;;;;10.18;6.03;;;;;;;;;;5030094;28;20033;-78
2023/07/05 08:16:40;;;;;;;11.20;5.63;;;;;;;;;;5029873;28;20029;-77
2023/07/05 08:19:07;;;;;;;8.18;5.30;;;;;;;;;;5027161;28;20025;-76
2023/07/05 08:21:33;;;;;;;9.88;6.10;;;;;;;;;;5035438;28;20025;-77
2023/07/05 08:23:59;;;;;;;8.18;5.43;;;;;;;;;;5011168;28;20062;-77
2023/07/05 08:26:25;;;;;;;9.20;5.78;;;;;;;;;;5028053;28;20110;-77
2023/07/05 08:28:51;;;;;;;8.13;5.40;;;;;;;;;;5030218;28;20450;-77
2023/07/05 08:31:18;;;;;;;9.80;5.43;;;;;;;;;;5033712;28;20095;-77
2023/07/05 08:33:44;;;;;;;7.05;5.00;;;;;;;;;;5033048;28;20057;-78
2023/07/05 08:36:28;;;;;;;9.25;5.40;;;768.00;1920.00;;;;;;5015395;28;20034;-79
2023/07/05 08:38:57;;;;;;;8.07;5.55;;;;;;;;;;5038113;28;20120;-79
2023/07/05 08:41:44;;;;;;;8.43;5.47;;;743.20;1868.80;;;;;;5032826;28;20029;-78
2023/07/05 08:44:37;;;;;;;6.68;5.10;;;743.20;1920.00;;;;;;5032829;28;20040;-79
2023/07/05 08:47:10;;;;;;;7.97;5.90;;;743.30;1894.40;;;;;;5015221;28;20029;-79
2023/07/05 08:50:06;;;;;;;8.80;5.50;;;;;;;;;;5026220;28;20026;-79
2023/07/05 08:52:39;;;;;;;9.80;5.65;;;742.80;1920.00;;;;;;4952336;28;20050;-78
2023/07/05 08:55:11;;;;;;;7.82;5.57;;;743.00;1945.60;;;;;;4951175;29;20098;-78
2023/07/05 08:57:56;;;;;;;8.18;5.78;;;743.20;1920.00;;;;;;4952953;28;20027;-77
2023/07/05 09:00:48;;;;;;;9.00;5.70;;;743.00;1920.00;;;;;;4942686;28;20077;-77
2023/07/05 09:03:15;;;;;;;16.95;8.43;;;742.80;1971.20;;;;;;4952834;28;20127;-78
2023/07/05 09:05:58;;;;;;;9.13;5.57;;;742.80;1996.80;;;;;;4941591;29;20047;-77
2023/07/05 09:08:48;;;;;;;8.38;5.47;;;742.90;1920.00;;;;;;4951090;29;20545;-79
2023/07/05 09:11:52;;;;;;;30.45;15.57;;;743.00;1920.00;;;;;;4953016;29;20039;-79
2023/07/05 09:14:41;;;;;;;11.80;7.35;;;768.40;1894.40;;;;;;4893902;29;20048;-78
2023/07/05 09:17:48;;;;;;;23.08;11.45;;;793.60;1894.40;;;;;;4872761;29;20074;-78
2023/07/05 09:20:32;;;;;;;15.40;8.43;;;;;;;;;;4885850;29;20050;-80
2023/07/05 09:22:59;;;;;;;12.90;6.78;;;;;;;;;;4889790;29;20059;-78
2023/07/05 09:25:26;;;;;;;9.48;6.15;;;;;;;;;;4892593;29;20513;-79
2023/07/05 09:27:55;;;;;;;11.98;7.45;;;;;;;;;;4877918;29;20143;-79
2023/07/05 09:30:26;;;;;;;8.77;5.80;;;;;;;;;;4941998;29;20083;-78
2023/07/05 09:32:57;;;;;;;9.45;5.95;;;;;;;;;;4948766;29;20507;-78
2023/07/05 09:35:25;;;;;;;11.65;6.03;;;768.10;1868.80;;;;;;4926595;29;20035;-78
2023/07/05 09:38:11;;;;;;;9.98;6.07;;;768.00;1868.80;;;;;;4941400;29;20083;-78
2023/07/05 09:41:12;;;;;;;8.27;5.80;;;768.30;1868.80;;;;;;4924097;29;20028;-78
2023/07/05 09:43:39;;;;;;;8.07;5.60;;;;;;;;;;4867690;29;20037;-79
2023/07/05 09:46:19;;;;;;;10.80;6.30;;;793.70;1894.40;;;;;;4867007;29;20102;-80
2023/07/05 09:48:49;;;;;;;12.05;6.13;;;768.60;1843.20;;;;;;4865247;29;20036;-80
2023/07/05 09:51:17;;;;;;;9.10;6.40;;;768.50;1894.40;;;;;;4912830;29;20032;-79
2023/07/05 09:53:52;;;;;;;11.00;6.68;;;768.50;1945.60;;;;;;4917097;29;20367;-77
2023/07/05 09:56:27;;;;;;;11.75;6.68;;;768.80;1894.40;;;;;;4909755;29;20056;-81
2023/07/05 09:59:15;;;;;;;9.73;6.13;;;793.60;1894.40;;;;;;4913008;29;20032;-82
2023/07/05 10:01:43;;;;;;;8.85;6.40;;;794.30;1868.80;;;;;;4911297;29;20391;-78
2023/07/05 10:04:10;;;;;;;11.43;6.07;;;794.30;1843.20;;;;;;4908943;29;20043;-80
2023/07/05 10:06:38;;;;;;;10.18;6.40;;;;;;;;;;4913147;29;20066;-81
2023/07/05 10:09:52;;;;;;;11.18;6.30;;;768.90;1843.20;;;;;;4896986;29;20024;-80
2023/07/05 10:12:20;;;;;;;9.57;5.90;;;;;;;;;;4857864;29;20738;-79
2023/07/05 10:14:54;;;;;;;10.25;6.53;;;794.10;1843.20;;;;;;4875016;29;20041;-80
2023/07/05 10:17:20;;;;;;;12.50;6.88;;;793.90;1894.40;;;;;;4874057;29;20025;-79
2023/07/05 10:19:55;;;;;;;12.38;7.00;;;794.20;1868.80;;;;;;4892384;29;20433;-79
2023/07/05 10:22:30;;;;;;;12.90;6.38;;;819.20;1843.20;;;;;;4917780;29;20784;-81
2023/07/05 10:25:13;;;;;;;12.52;7.20;;;819.20;1792.00;;;;;;4924021;29;20067;-81
2023/07/05 10:27:43;;;;;;;11.25;7.28;;;794.10;1792.00;;;;;;4930747;29;20140;-82
2023/07/05 10:30:14;;;;;;;10.75;6.78;;;794.10;1817.60;;;;;;4930909;29;20028;-78
2023/07/05 10:32:41;;;;;;;9.13;6.72;;;819.20;1817.60;;;;;;4931417;29;20519;-81
2023/07/05 10:35:28;;;;;;;11.50;6.90;;;819.20;1766.40;;;;;;4930620;29;20501;-80
2023/07/05 10:37:56;;;;;;;19.73;7.00;;;819.70;1792.00;;;;;;4930308;29;20026;-79
2023/07/05 10:40:23;;;;;;;10.60;6.50;;;820.10;1715.20;;;;;;4928387;29;20044;-80
2023/07/05 10:43:01;;;;;;;10.68;6.63;;;820.10;1766.40;;;;;;4929536;29;20035;-78
2023/07/05 10:45:34;;;;;;;8.93;6.38;;;820.10;1740.80;;;;;;4916978;29;20043;-79
2023/07/05 10:48:03;;;;;;;9.20;6.70;;;845.00;1792.00;;;;;;4988600;28;20391;-79
2023/07/05 10:50:32;;;;;;;10.35;6.50;;;819.50;1766.40;;;;;;5016148;28;20091;-77
2023/07/05 10:53:10;;;;;;;11.63;6.50;;;819.20;1792.00;;;;;;5026107;28;20364;-78
2023/07/05 10:56:04;;;;;;;9.63;6.50;;;820.00;1766.40;;;;;;5027188;28;20022;-78
2023/07/05 10:58:40;;;;;;;10.18;6.63;;;845.20;1766.40;;;;;;5026269;28;20136;-79
2023/07/05 11:01:21;;;;;;;9.15;6.50;;;845.50;1740.80;;;;;;5028618;28;20024;-80
2023/07/05 11:04:12;;;;;;;11.02;6.38;;;819.90;1740.80;;;;;;5022779;28;20188;-79
2023/07/05 11:06:40;;;;;;;10.65;6.43;;;845.40;1740.80;;;;;;4950866;29;20481;-79
2023/07/05 11:09:08;;;;;;;12.27;6.35;;;845.70;1664.00;;;;;;4949675;29;20039;-79
2023/07/05 11:11:50;;;;;;;10.35;6.50;;;870.40;1689.60;;;;;;4950260;29;20059;-77
2023/07/05 11:14:17;;;;;;;12.65;6.85;;;870.40;1664.00;;;;;;4959798;28;20755;-76
2023/07/05 11:16:58;;;;;;;11.77;6.38;;;845.10;1715.20;;;;;;4969914;28;20454;-79
2023/07/05 11:19:29;;;;;;;9.57;6.40;;;845.30;1715.20;;;;;;4966959;28;20026;-79
2023/07/05 11:21:55;;;;;;;9.80;6.47;;;845.70;1689.60;;;;;;4929999;29;20119;-77
2023/07/05 11:24:30;;;;;;;9.07;6.30;;;870.50;1664.00;;;;;;4929983;29;20064;-80
2023/07/05 11:26:57;;;;;;;11.73;6.85;;;845.10;1689.60;;;;;;4930638;29;20028;-82
2023/07/05 11:29:28;;;;;;;11.75;6.63;;;844.80;1715.20;;;;;;4931573;29;20032;-81
2023/07/05 11:31:53;;;;;;;14.07;6.95;;;845.10;1740.80;;;;;;4960187;28;20107;-80
2023/07/05 11:34:24;;;;;;;11.07;6.60;;;819.70;1715.20;;;;;;4970674;28;20082;-79
2023/07/05 11:36:53;;;;;;;10.60;6.50;;;794.50;1766.40;;;;;;4969563;28;20065;-78
2023/07/05 11:39:34;;;;;;;11.23;6.85;;;794.50;1766.40;;;;;;4947370;29;20046;-83
2023/07/05 11:42:22;;;;;;;9.40;6.70;;;;;;;;;;4950652;29;20228;-78
2023/07/05 11:45:10;;;;;;;11.77;6.57;;;820.00;1740.80;;;;;;4980506;28;20043;-77
2023/07/05 11:47:35;;;;;;;12.30;6.53;;;820.00;1689.60;;;;;;4967353;28;20035;-80
2023/07/05 11:50:14;;;;;;;11.27;6.55;;;819.70;1689.60;;;;;;4957982;28;20042;-78
2023/07/05 11:52:47;;;;;;;9.90;6.80;;;794.40;1740.80;;;;;;4988083;28;20097;-79
2023/07/05 11:55:23;;;;;;;11.13;6.50;;;794.50;1740.80;;;;;;4962299;28;20133;-82
2023/07/05 11:57:59;;;;;;;8.57;6.30;;;819.80;1740.80;;;;;;4979951;28;20030;-83
2023/07/05 12:00:48;;;;;;;10.18;6.28;;;844.90;1740.80;;;;;;4961907;28;20027;-78
2023/07/05 12:03:18;;;;;;;11.52;6.97;;;845.00;1715.20;;;;;;4969961;28;20552;-78
2023/07/05 12:05:46;;;;;;;10.30;5.95;;;845.00;1715.20;;;;;;4956396;28;20031;-80
2023/07/05 12:08:25;;;;;;;8.93;6.85;;;845.10;1715.20;;;;;;4982896;28;20122;-85
2023/07/05 12:10:54;;;;;;;9.60;6.25;;;845.60;1715.20;;;;;;4963923;28;20026;-81
2023/07/05 12:13:23;;;;;;;8.57;6.25;;;870.60;1638.40;;;;;;4969531;28;20030;-82
2023/07/05 12:15:49;;;;;;;10.57;6.90;;;870.80;1638.40;;;;;;4977405;28;20035;-79
2023/07/05 12:18:16;;;;;;;8.75;6.32;;;870.40;1689.60;;;;;;4979116;28;20044;-85
2023/07/05 12:20:43;;;;;;;8.93;6.07;;;870.70;1612.80;;;;;;4982161;28;20030;-79
2023/07/05 12:23:14;;;;;;;8.65;6.22;;;871.00;1587.20;;;;;;5026673;28;20039;-78
2023/07/05 12:25:45;;;;;;;11.10;6.45;;;871.20;1561.60;;;;;;5031424;28;20045;-83
2023/07/05 12:28:16;;;;;;;9.32;5.78;;;;;;;;;;5032714;28;20025;-79
2023/07/05 12:30:41;;;;;;;9.48;6.47;;;871.20;1561.60;;;;;;5030778;28;20382;-81
2023/07/05 12:33:26;;;;;;;9.80;6.25;;;871.00;1561.60;;;;;;5032458;28;20045;-79
2023/07/05 12:36:14;;;;;;;7.45;5.80;;;870.80;1536.00;;;;;;5032738;28;20036;-80
2023/07/05 12:38:44;;;;;;;10.02;6.25;;;870.60;1536.00;;;;;;5015072;28;20178;-84
2023/07/05 12:41:24;;;;;;;7.60;6.00;;;870.80;1561.60;;;;;;5031612;28;20036;-81
2023/07/05 12:44:00;;;;;;;10.50;6.28;;;871.00;1536.00;;;;;;5026791;28;20065;-79
2023/07/05 12:46:28;;;;;;;11.20;7.55;;;871.00;1510.40;;;;;;5031423;28;20045;-80
2023/07/05 12:48:54;;;;;;;8.48;6.03;;;871.20;1510.40;;;;;;5029558;28;20029;-81
2023/07/05 12:51:21;;;;;;;7.47;6.22;;;871.20;1484.80;;;;;;5032280;28;20475;-80
2023/07/05 12:53:52;;;;;;;9.98;6.22;;;870.60;1536.00;;;;;;5015481;28;20049;-83
2023/07/05 12:56:22;;;;;;;11.38;6.55;;;871.00;1510.40;;;;;;5017517;28;20037;-82
2023/07/05 12:59:24;;;;;;;10.13;6.30;;;871.20;1484.80;;;;;;5023144;28;20425;-80
2023/07/05 13:01:51;;;;;;;10.02;6.28;;;896.40;1510.40;;;;;;5018214;28;20035;-82
2023/07/05 13:04:37;;;;;;;8.98;6.05;;;896.40;1484.80;;;;;;5028028;28;20041;-84
2023/07/05 13:07:04;;;;;;;8.98;6.32;;;896.50;1459.20;;;;;;5029864;28;20021;-79
2023/07/05 13:09:36;;;;;;;8.23;5.85;;;896.40;1459.20;;;;;;5032656;28;20478;-86
2023/07/05 13:12:04;;;;;;;8.80;6.10;;;896.20;1459.20;;;;;;5031242;28;20072;-84
2023/07/05 13:14:32;;;;;;;12.75;6.47;;;870.70;1510.40;;;;;;5033287;28;20035;-83
2023/07/05 13:17:15;;;;;;;9.55;6.22;;;871.30;1484.80;;;;;;5026374;28;20042;-87
2023/07/05 13:19:47;;;;;;;11.57;6.30;;;896.20;1459.20;;;;;;5024886;28;20032;-86
2023/07/05 13:22:29;;;;;;;7.95;6.35;;;896.40;1459.20;;;;;;5033030;28;20124;-88
2023/07/05 13:24:57;;;;;;;7.95;6.32;;;896.80;1459.20;;;;;;5014767;28;20045;-90
2023/07/05 13:27:31;;;;;;;8.80;5.90;;;896.30;1459.20;;;;;;4996348;28;20034;-87
2023/07/05 13:30:18;;;;;;;8.32;5.75;;;896.50;1408.00;;;;;;5008337;28;20030;-87
2023/07/05 13:32:49;;;;;;;7.55;5.75;;;871.20;1433.60;;;;;;5033695;28;20079;-89
2023/07/05 13:35:15;;;;;;;9.38;6.22;;;896.60;1433.60;;;;;;4996928;28;20046;-83
2023/07/05 13:37:41;;;;;;;7.97;5.82;;;896.80;1408.00;;;;;;5014004;28;20045;-87
2023/07/05 13:40:16;;;;;;;8.45;6.40;;;921.60;1433.60;;;;;;4987989;28;20034;-82
2023/07/05 13:42:42;;;;;;;8.18;5.63;;;921.80;1433.60;;;;;;5003526;28;20042;-81
2023/07/05 13:45:28;;;;;;;7.88;5.90;;;921.90;1408.00;;;;;;5013657;28;20145;-80
2023/07/05 13:47:55;;;;;;;9.55;5.90;;;921.90;1382.40;;;;;;5012525;28;20061;-82
2023/07/05 13:50:27;;;;;;;9.00;5.75;;;896.90;1356.80;;;;;;4995227;28;20030;-86
2023/07/05 13:52:54;;;;;;;8.05;6.00;;;896.70;1382.40;;;;;;5011642;28;20038;-83
2023/07/05 13:55:22;;;;;;;9.13;5.55;;;896.10;1382.40;;;;;;5005490;28;20070;-85
2023/07/05 13:57:53;;;;;;;8.05;5.72;;;896.20;1408.00;;;;;;5011803;28;20116;-78
2023/07/05 14:00:19;;;;;;;6.93;5.85;;;896.20;1382.40;;;;;;5009863;28;20022;-82
2023/07/05 14:02:44;;;;;;;6.45;5.60;;;896.20;1382.40;;;;;;5010769;28;20502;-83
2023/07/05 14:05:12;;;;;;;7.72;5.28;;;871.00;1408.00;;;;;;5010225;28;20050;-80
2023/07/05 14:07:38;;;;;;;7.15;5.65;;;871.00;1408.00;;;;;;5011332;28;20033;-80
2023/07/05 14:10:05;;;;;;;6.82;5.60;;;870.80;1433.60;;;;;;4994176;28;20474;-79
2023/07/05 14:12:31;;;;;;;6.72;5.90;;;870.90;1408.00;;;;;;5004588;28;20482;-81
2023/07/05 14:14:56;;;;;;;7.82;5.63;;;870.50;1433.60;;;;;;4992252;28;20021;-78
2023/07/05 14:17:23;;;;;;;7.90;5.68;;;845.50;1459.20;;;;;;5007163;28;20033;-79
2023/07/05 14:19:50;;;;;;;7.85;5.50;;;845.70;1433.60;;;;;;5011718;28;20030;-85
2023/07/05 14:22:21;;;;;;;9.52;5.60;;;845.70;1433.60;;;;;;5010486;28;20041;-84
2023/07/05 14:24:48;;;;;;;8.65;5.95;;;870.60;1408.00;;;;;;5011902;28;20096;-83
2023/07/05 14:27:24;;;;;;;8.82;5.75;;;870.60;1433.60;;;;;;5010546;28;20034;-83
2023/07/05 14:29:52;;;;;;;7.50;5.90;;;871.00;1408.00;;;;;;5008524;28;20022;-82
2023/07/05 14:32:18;;;;;;;7.63;5.68;;;870.60;1408.00;;;;;;5010472;28;20088;-86
2023/07/05 14:34:44;;;;;;;7.80;6.05;;;845.70;1433.60;;;;;;5027669;28;20053;-86
2023/07/05 14:37:11;;;;;;;7.03;5.75;;;845.60;1459.20;;;;;;5038598;28;20128;-86
2023/07/05 14:39:37;;;;;;;8.68;5.50;;;845.70;1433.60;;;;;;5036771;28;20030;-83
2023/07/05 14:42:04;;;;;;;8.52;5.78;;;845.60;1433.60;;;;;;5036836;28;20091;-85
2023/07/05 14:44:30;;;;;;;7.18;5.50;;;845.60;1408.00;;;;;;5023808;28;20046;-80
2023/07/05 14:46:57;;;;;;;8.63;6.00;;;845.30;1433.60;;;;;;5033259;28;20038;-90
2023/07/05 14:50:00;;;;;;;7.70;5.95;;;845.10;1459.20;;;;;;5033380;28;20057;-90
2023/07/05 14:52:26;;;;;;;7.57;5.72;;;845.20;1484.80;;;;;;5032614;28;20364;-80
2023/07/05 14:54:51;;;;;;;6.97;5.68;;;845.30;1459.20;;;;;;5033706;28;20112;-91
2023/07/05 14:57:17;;;;;;;7.30;5.78;;;845.40;1459.20;;;;;;5032124;28;20038;-81
2023/07/05 14:59:43;;;;;;;7.43;5.80;;;845.30;1459.20;;;;;;5029918;28;20047;-80
2023/07/05 15:02:20;;;;;;;7.65;6.10;;;845.20;1459.20;;;;;;5008794;28;20040;-80
2023/07/05 15:04:46;;;;;;;10.88;5.35;;;845.20;1484.80;;;;;;5027941;28;20184;-82
2023/07/05 15:07:17;;;;;;;6.75;5.97;;;845.30;1484.80;;;;;;5030335;28;20136;-79
2023/07/05 15:09:42;;;;;;;7.78;5.88;;;845.20;1459.20;;;;;;5030383;28;20160;-79
2023/07/05 15:12:11;;;;;;;10.73;5.70;;;845.20;1484.80;;;;;;5028906;28;20066;-84
2023/07/05 15:14:37;;;;;;;7.50;5.70;;;845.10;1484.80;;;;;;5041654;28;20021;-79
2023/07/05 15:17:02;;;;;;;9.90;6.35;;;845.00;1510.40;;;;;;5019095;28;20471;-80
2023/07/05 15:19:28;;;;;;;7.78;5.78;;;845.00;1510.40;;;;;;5021318;28;20040;-80
2023/07/05 15:21:55;;;;;;;7.30;5.72;;;820.00;1510.40;;;;;;5011398;28;20050;-85
2023/07/05 15:24:20;;;;;;;8.57;6.13;;;820.00;1510.40;;;;;;5030266;28;20045;-79
2023/07/05 15:26:47;;;;;;;7.70;6.00;;;819.80;1510.40;;;;;;5013701;28;20038;-81
2023/07/05 15:29:15;;;;;;;8.98;6.10;;;820.00;1510.40;;;;;;5032542;28;20038;-82
2023/07/05 15:31:41;;;;;;;8.00;5.95;;;820.00;1510.40;;;;;;5029072;28;20352;-80
2023/07/05 15:34:06;;;;;;;7.95;6.13;;;844.80;1510.40;;;;;;5028691;28;20048;-78
2023/07/05 15:36:32;;;;;;;7.78;5.90;;;820.10;1484.80;;;;;;5004894;28;20136;-80
2023/07/05 15:38:58;;;;;;;8.18;5.90;;;820.00;1484.80;;;;;;5035841;28;20021;-85
2023/07/05 15:41:24;;;;;;;9.15;6.10;;;820.10;1510.40;;;;;;5034460;28;20490;-83
2023/07/05 15:43:49;;;;;;;7.22;6.10;;;819.90;1484.80;;;;;;5036228;28;20045;-80
2023/07/05 15:46:15;;;;;;;8.48;6.10;;;819.80;1484.80;;;;;;5035803;28;20466;-79
2023/07/05 15:48:43;;;;;;;9.70;6.20;;;819.70;1510.40;;;;;;5035169;28;20040;-79
2023/07/05 15:51:10;;;;;;;9.45;6.10;;;820.00;1510.40;;;;;;5018691;28;20089;-80
2023/07/05 15:53:36;;;;;;;8.68;6.43;;;844.80;1536.00;;;;;;5033670;28;20044;-81
2023/07/05 15:56:02;;;;;;;8.30;6.32;;;820.10;1484.80;;;;;;5012887;28;20149;-80
2023/07/05 15:58:30;;;;;;;9.15;6.53;;;820.10;1510.40;;;;;;5016764;28;20510;-86
2023/07/05 16:01:03;;;;;;;10.13;6.40;;;819.90;1510.40;;;;;;5034796;28;20026;-79
2023/07/05 16:03:29;;;;;;;8.63;5.97;;;819.70;1536.00;;;;;;5015321;28;20038;-80
2023/07/05 16:05:55;;;;;;;10.95;6.30;;;819.80;1510.40;;;;;;5030481;28;20069;-88
2023/07/05 16:08:21;;;;;;;7.93;6.07;;;819.90;1510.40;;;;;;5032251;28;20028;-82
2023/07/05 16:10:47;;;;;;;8.65;6.18;;;819.90;1510.40;;;;;;5028231;28;20513;-84
2023/07/05 16:13:13;;;;;;;9.57;6.10;;;819.90;1510.40;;;;;;5018320;28;20042;-83
2023/07/05 16:15:39;;;;;;;8.38;5.80;;;819.70;1536.00;;;;;;5018919;28;20021;-81
2023/07/05 16:18:07;;;;;;;8.63;5.70;;;819.70;1510.40;;;;;;5025661;28;20021;-83
2023/07/05 16:20:34;;;;;;;8.52;6.05;;;819.60;1536.00;;;;;;5017911;28;20066;-85
2023/07/05 16:23:00;;;;;;;10.70;6.63;;;819.30;1561.60;;;;;;5016268;28;20121;-80
2023/07/05 16:25:29;;;;;;;8.15;5.85;;;819.20;1561.60;;;;;;5033942;28;20111;-84
2023/07/05 16:27:55;;;;;;;7.95;5.85;;;819.40;1561.60;;;;;;5001273;28;20053;-80
2023/07/05 16:30:21;;;;;;;9.98;5.90;;;819.50;1536.00;;;;;;5031219;28;20072;-80
2023/07/05 16:32:47;;;;;;;8.02;5.82;;;819.60;1536.00;;;;;;5037736;28;20076;-84
2023/07/05 16:35:13;;;;;;;7.88;6.00;;;819.40;1536.00;;;;;;5004953;28;20541;-83
2023/07/05 16:37:38;;;;;;;7.03;5.82;;;819.60;1536.00;;;;;;5038091;28;20352;-84
2023/07/05 16:40:05;;;;;;;9.68;6.25;;;819.90;1536.00;;;;;;5038398;28;20040;-85
2023/07/05 16:42:31;;;;;;;9.68;6.30;;;819.80;1536.00;;;;;;5037591;28;20068;-82
2023/07/05 16:44:57;;;;;;;9.57;6.25;;;845.20;1536.00;;;;;;5034869;28;20053;-80
2023/07/05 16:47:24;;;;;;;9.25;6.78;;;845.10;1510.40;;;;;;5034609;28;20021;-84
2023/07/05 16:49:50;;;;;;;8.35;6.25;;;844.80;1536.00;;;;;;5034457;28;20176;-81
2023/07/05 16:52:16;;;;;;;10.18;6.50;;;819.90;1536.00;;;;;;5034981;28;20021;-86
2023/07/05 16:54:42;;;;;;;8.32;6.50;;;819.90;1536.00;;;;;;5032797;28;20501;-80
2023/07/05 16:57:08;;;;;;;9.52;6.47;;;819.50;1561.60;;;;;;5032320;28;20025;-84
2023/07/05 16:59:35;;;;;;;11.65;8.85;;;819.40;1587.20;;;;;;5032192;28;20503;-85
2023/07/05 17:02:01;;;;;;;9.35;6.90;;;819.40;1561.60;;;;;;5032566;28;20386;-81
2023/07/05 17:04:28;;;;;;;9.68;6.10;;;819.30;1561.60;;;;;;5011763;28;20026;-80
2023/07/05 17:06:54;;;;;;;7.93;6.00;;;819.20;1587.20;;;;;;5016452;28;20025;-79
2023/07/05 17:09:20;;;;;;;10.30;6.85;;;;;;;;;;5015274;28;20034;-85
2023/07/05 17:11:47;;;;;;;10.82;6.60;;;;;;;;;;5007163;28;20486;-80
2023/07/05 17:14:15;;;;;;;9.57;6.20;;;;;;;;;;5020410;28;20029;-81
2023/07/05 17:16:41;;;;;;;9.65;6.45;;;;;;;;;;5031599;28;20428;-80
2023/07/05 17:19:07;;;;;;;8.30;6.05;;;;;;;;;;5024447;28;20029;-79
2023/07/05 17:21:34;;;;;;;7.88;6.20;;;;;;;;;;5027256;28;20057;-81
2023/07/05 17:24:00;;;;;;;9.73;6.22;;;;;;;;;;5024856;28;20026;-79
2023/07/05 17:26:26;;;;;;;9.00;6.57;;;;;;;;;;4994113;28;20419;-81
2023/07/05 17:28:52;;;;;;;9.32;6.13;;;794.30;1612.80;;;;;;4995072;28;20029;-83
2023/07/05 17:31:20;;;;;;;8.43;6.35;;;793.90;1638.40;;;;;;5012069;28;20399;-83
2023/07/05 17:33:46;;;;;;;11.38;6.43;;;793.90;1638.40;;;;;;5025450;28;20129;-82
2023/07/05 17:36:15;;;;;;;7.57;6.35;;;793.80;1664.00;;;;;;5022042;28;20037;-83
2023/07/05 17:38:43;;;;;;;8.95;6.18;;;793.70;1664.00;;;;;;5027936;28;20053;-84
2023/07/05 17:41:09;;;;;;;9.60;6.03;;;793.60;1689.60;;;;;;5033633;28;20034;-87
2023/07/05 17:43:35;;;;;;;10.18;6.50;;;;;;;;;;5033265;28;20113;-84
2023/07/05 17:46:17;;;;;;;8.63;6.28;;;793.60;1740.80;;;;;;5020858;28;20042;-80
2023/07/05 17:48:43;;;;;;;13.82;7.15;;;;;;;;;;4995737;28;20030;-89
2023/07/05 17:51:09;;;;;;;9.30;6.70;;;;;;;;;;4995899;28;20038;-85
2023/07/05 17:53:35;;;;;;;9.38;6.50;;;;;;;;;;5013622;28;20071;-78
2023/07/05 17:56:01;;;;;;;7.53;6.55;;;;;;;;;;5024984;28;20103;-81
2023/07/05 17:58:28;;;;;;;10.60;6.70;;;;;;;;;;5015041;28;20040;-78
2023/07/05 18:00:55;;;;;;;8.80;6.80;;;;;;;;;;5013442;28;20499;-81
2023/07/05 18:03:24;;;;;;;9.57;6.40;;;;;;;;;;5030747;28;20037;-82
2023/07/05 18:05:56;;;;;;;10.93;6.80;;;;;;;;;;5027291;28;20121;-86
2023/07/05 18:08:23;;;;;;;9.77;6.55;;;;;;;;;;5015782;28;20026;-83
2023/07/05 18:10:59;;;;;;;12.38;6.90;;;;;;;;;;5013665;28;20032;-82
2023/07/05 18:13:29;;;;;;;10.82;6.50;;;;;;;;;;5030115;28;20024;-82
2023/07/05 18:15:57;;;;;;;8.93;6.80;;;;;;;;;;5012330;28;20026;-81
2023/07/05 18:18:24;;;;;;;10.50;6.88;;;;;;;;;;5030317;28;20038;-78
2023/07/05 18:20:50;;;;;;;11.23;6.78;;;;;;;;;;5030771;28;20753;-80
2023/07/05 18:23:17;;;;;;;10.65;7.07;;;;;;;;;;5031848;28;20041;-79
2023/07/05 18:25:43;;;;;;;13.13;7.22;;;768.80;1766.40;;;;;;5030795;28;20450;-80
2023/07/05 18:28:10;;;;;;;13.65;7.80;;;768.50;1792.00;;;;;;5009587;28;20025;-80
2023/07/05 18:30:36;;;;;;;12.98;7.70;;;;;;;;;;5031074;28;20029;-86
2023/07/05 18:33:03;;;;;;;15.73;8.00;;;;;;;;;;5032930;28;20037;-84
2023/07/05 18:35:30;;;;;;;10.75;7.50;;;;;;;;;;5026630;28;20033;-81
2023/07/05 18:37:56;;;;;;;15.63;8.20;;;;;;;;;;5011632;28;20052;-83
2023/07/05 18:40:22;;;;;;;12.60;7.22;;;;;;;;;;5015948;28;20038;-86
2023/07/05 18:42:48;;;;;;;11.45;7.05;;;;;;;;;;5032867;28;20041;-84
2023/07/05 18:45:14;;;;;;;11.70;7.32;;;768.50;1843.20;;;;;;5007980;28;20056;-79
2023/07/05 18:47:40;;;;;;;13.10;7.55;;;768.30;1868.80;;;;;;5015284;28;20048;-81
2023/07/05 18:50:07;;;;;;;11.50;7.30;;;768.00;1868.80;;;;;;5012132;28;20031;-83
2023/07/05 18:52:33;;;;;;;10.38;6.75;;;743.20;1894.40;;;;;;5029135;28;20038;-87
2023/07/05 18:54:59;;;;;;;10.73;7.28;;;743.20;1920.00;;;;;;5028994;28;20391;-81
2023/07/05 18:57:24;;;;;;;15.90;7.88;;;743.10;1920.00;;;;;;5024408;28;20049;-88
2023/07/05 18:59:52;;;;;;;13.50;7.45;;;;;;;;;;5030605;28;20025;-87
2023/07/05 19:02:18;;;;;;;9.68;6.90;;;;;;;;;;5031210;28;20033;-77
2023/07/05 19:04:44;;;;;;;13.18;7.00;;;;;;;;;;5032112;28;20065;-81
2023/07/05 19:07:10;;;;;;;11.07;7.28;;;;;;;;;;5031333;28;20029;-80
2023/07/05 19:09:36;;;;;;;11.80;7.05;;;;;;;;;;5031314;28;20068;-80
2023/07/05 19:12:03;;;;;;;10.93;7.43;;;743.10;1971.20;;;;;;5014058;28;20045;-81
2023/07/05 19:14:30;;;;;;;11.52;7.35;;;742.90;1971.20;;;;;;5032941;28;20245;-83
2023/07/05 19:16:56;;;;;;;11.55;7.75;;;742.80;1971.20;;;;;;5027082;28;20333;-79
2023/07/05 19:19:22;;;;;;;18.90;8.65;;;742.80;1996.80;;;;;;5028139;28;20080;-77
2023/07/05 19:21:48;;;;;;;15.25;8.20;;;742.60;2073.60;;;;;;5041737;28;20037;-78
2023/07/05 19:24:14;;;;;;;12.93;8.13;;;742.40;2099.20;;;;;;5024727;28;20045;-84
2023/07/05 19:26:40;;;;;;;12.80;8.02;;;717.70;2099.20;;;;;;5028965;28;20642;-82
2023/07/05 19:29:06;;;;;;;22.38;9.00;;;717.20;2150.40;;;;;;5009196;28;20037;-81
2023/07/05 19:31:33;;;;;;;17.50;8.93;;;;;;;;;;5029775;28;20099;-84
2023/07/05 19:33:59;;;;;;;17.13;8.70;;;;;;;;;;5029428;28;20053;-84
2023/07/05 19:39:42;;;;;;;13.27;8.02;;;;;;;;;;5020066;28;20028;-81
2023/07/05 19:42:08;;;;;;;16.85;7.90;;;;;;;;;;5030976;28;20478;-85
2023/07/05 19:44:34;;;;;;;16.58;7.97;;;;;;;;;;5032702;28;20037;-86
2023/07/05 19:47:00;;;;;;;13.60;7.95;;;;;;;;;;5010808;28;20029;-84
2023/07/05 19:49:27;;;;;;;15.30;7.90;;;;;;;;;;5033332;28;20127;-83
2023/07/05 19:51:54;;;;;;;16.33;8.50;;;;;;;;;;5012560;28;20033;-80
2023/07/05 19:54:21;;;;;;;14.73;8.40;;;;;;;;;;5026211;28;20034;-78
2023/07/05 19:56:47;;;;;;;17.38;8.63;;;;;;;;;;5030255;28;20022;-76
2023/07/05 19:59:13;;;;;;;19.85;8.07;;;;;;;;;;5014071;28;20490;-85
2023/07/05 20:01:40;;;;;;;16.83;8.30;;;;;;;;;;5030682;28;20041;-81
2023/07/05 20:04:08;;;;;;;16.58;8.10;;;;;;;;;;5031937;28;20313;-88
2023/07/05 20:06:34;;;;;;;13.60;8.52;;;;;;;;;;5012536;28;20039;-80
2023/07/05 20:09:02;;;;;;;12.90;8.57;;;;;;;;;;5013633;28;20041;-78
2023/07/05 20:11:29;;;;;;;15.57;8.55;;;691.50;2432.00;;;;;;5027047;28;20068;-84
2023/07/05 20:13:55;;;;;;;16.70;8.00;;;691.20;2432.00;;;;;;5012512;28;20044;-81
2023/07/05 20:16:21;;;;;;;16.70;8.35;;;691.30;2432.00;;;;;;5030144;28;20037;-78
2023/07/05 20:18:48;;;;;;;16.80;8.80;;;691.40;2432.00;;;;;;5030937;28;20033;-79
2023/07/05 20:21:14;;;;;;;14.35;8.52;;;691.40;2432.00;;;;;;5030879;28;20017;-79
2023/07/05 20:23:41;;;;;;;13.93;7.97;;;691.50;2432.00;;;;;;5030570;28;20021;-83
2023/07/05 20:26:08;;;;;;;18.70;8.60;;;691.50;2432.00;;;;;;5033740;28;20140;-84
2023/07/05 20:28:33;;;;;;;16.73;8.27;;;691.50;2432.00;;;;;;5023320;28;20483;-78
2023/07/05 20:31:00;;;;;;;17.95;8.80;;;691.40;2432.00;;;;;;5034090;28;20037;-77
2023/07/05 20:33:30;;;;;;;16.52;8.82;;;691.30;2432.00;;;;;;5010943;28;20434;-84
2023/07/05 20:36:01;;;;;;;17.80;9.40;;;691.40;2432.00;;;;;;5034946;28;20468;-81
2023/07/05 20:38:28;;;;;;;17.10;8.65;;;691.50;2432.00;;;;;;5034177;28;20075;-87